sensor_id;sensor_type;location;lat;lon;timestamp;temperature;humidity
71668;DHT22;59504;54.806;9.640;2023-08-21T00:00:57;16.80;71.90
71668;DHT22;59504;54.806;9.640;2023-08-21T00:03:22;16.70;71.80
71668;DHT22;59504;54.806;9.640;2023-08-21T00:05:42;16.70;71.90
71668;DHT22;59504;54.806;9.640;2023-08-21T00:07:45;16.60;72.00
71668;DHT22;59504;54.806;9.640;2023-08-21T00:09:46;16.70;71.90
71668;DHT22;59504;54.806;9.640;2023-08-21T00:11:47;16.60;72.00
71668;DHT22;59504;54.806;9.640;2023-08-21T00:13:48;16.60;71.80
71668;DHT22;59504;54.806;9.640;2023-08-21T00:15:49;16.50;72.20
71668;DHT22;59504;54.806;9.640;2023-08-21T00:17:50;16.60;72.20
71668;DHT22;59504;54.806;9.640;2023-08-21T00:19:51;16.50;72.00
71668;DHT22;59504;54.806;9.640;2023-08-21T00:21:51;16.50;72.20
71668;DHT22;59504;54.806;9.640;2023-08-21T00:23:52;16.60;72.80
71668;DHT22;59504;54.806;9.640;2023-08-21T00:25:52;16.60;72.60
71668;DHT22;59504;54.806;9.640;2023-08-21T00:27:53;16.50;72.50
71668;DHT22;59504;54.806;9.640;2023-08-21T00:29:54;16.50;72.30
71668;DHT22;59504;54.806;9.640;2023-08-21T00:32:06;16.50;72.50
71668;DHT22;59504;54.806;9.640;2023-08-21T00:34:16;16.40;72.50
71668;DHT22;59504;54.806;9.640;2023-08-21T00:36:37;16.40;72.30
71668;DHT22;59504;54.806;9.640;2023-08-21T00:38:57;16.50;72.60
71668;DHT22;59504;54.806;9.640;2023-08-21T00:41:18;16.40;73.30
71668;DHT22;59504;54.806;9.640;2023-08-21T00:43:44;16.30;73.10
71668;DHT22;59504;54.806;9.640;2023-08-21T00:46:04;16.30;73.20
71668;DHT22;59504;54.806;9.640;2023-08-21T00:48:25;16.40;72.90
71668;DHT22;59504;54.806;9.640;2023-08-21T00:50:46;16.30;72.50
71668;DHT22;59504;54.806;9.640;2023-08-21T00:53:07;16.30;72.40
71668;DHT22;59504;54.806;9.640;2023-08-21T00:55:28;16.30;72.50
71668;DHT22;59504;54.806;9.640;2023-08-21T00:57:48;16.20;72.50
71668;DHT22;59504;54.806;9.640;2023-08-21T01:00:09;16.20;72.60
71668;DHT22;59504;54.806;9.640;2023-08-21T01:02:33;16.20;73.10
71668;DHT22;59504;54.806;9.640;2023-08-21T01:04:53;16.20;73.60
71668;DHT22;59504;54.806;9.640;2023-08-21T01:07:14;16.20;73.90
71668;DHT22;59504;54.806;9.640;2023-08-21T01:09:30;16.20;73.70
71668;DHT22;59504;54.806;9.640;2023-08-21T01:11:35;16.20;73.70
71668;DHT22;59504;54.806;9.640;2023-08-21T01:15:41;16.20;73.50
71668;DHT22;59504;54.806;9.640;2023-08-21T01:17:43;16.10;73.50
71668;DHT22;59504;54.806;9.640;2023-08-21T01:19:46;16.10;73.50
71668;DHT22;59504;54.806;9.640;2023-08-21T01:21:47;16.10;73.50
71668;DHT22;59504;54.806;9.640;2023-08-21T01:23:47;16.10;73.60
71668;DHT22;59504;54.806;9.640;2023-08-21T01:25:48;16.10;73.80
71668;DHT22;59504;54.806;9.640;2023-08-21T01:27:50;16.10;73.90
71668;DHT22;59504;54.806;9.640;2023-08-21T01:29:51;16.10;73.90
71668;DHT22;59504;54.806;9.640;2023-08-21T01:32:06;16.00;73.80
71668;DHT22;59504;54.806;9.640;2023-08-21T01:34:08;16.00;74.00
71668;DHT22;59504;54.806;9.640;2023-08-21T01:36:11;16.00;74.00
71668;DHT22;59504;54.806;9.640;2023-08-21T01:38:12;16.10;73.90
71668;DHT22;59504;54.806;9.640;2023-08-21T01:40:19;16.00;73.90
71668;DHT22;59504;54.806;9.640;2023-08-21T01:42:21;16.00;74.10
71668;DHT22;59504;54.806;9.640;2023-08-21T01:44:42;15.90;73.70
71668;DHT22;59504;54.806;9.640;2023-08-21T01:46:49;16.00;73.90
71668;DHT22;59504;54.806;9.640;2023-08-21T01:49:09;15.80;73.90
71668;DHT22;59504;54.806;9.640;2023-08-21T01:51:30;15.90;74.20
71668;DHT22;59504;54.806;9.640;2023-08-21T01:53:50;15.90;74.10
71668;DHT22;59504;54.806;9.640;2023-08-21T01:56:11;15.90;74.20
71668;DHT22;59504;54.806;9.640;2023-08-21T01:58:31;15.80;74.40
71668;DHT22;59504;54.806;9.640;2023-08-21T02:00:52;15.70;74.20
71668;DHT22;59504;54.806;9.640;2023-08-21T02:03:13;15.80;74.10
71668;DHT22;59504;54.806;9.640;2023-08-21T02:05:38;15.70;74.00
71668;DHT22;59504;54.806;9.640;2023-08-21T02:07:59;15.70;74.00
71668;DHT22;59504;54.806;9.640;2023-08-21T02:10:20;15.60;74.00
71668;DHT22;59504;54.806;9.640;2023-08-21T02:12:40;15.60;74.40
71668;DHT22;59504;54.806;9.640;2023-08-21T02:14:41;15.70;74.30
71668;DHT22;59504;54.806;9.640;2023-08-21T02:16:42;15.60;74.30
71668;DHT22;59504;54.806;9.640;2023-08-21T02:18:42;15.60;74.30
71668;DHT22;59504;54.806;9.640;2023-08-21T02:20:43;15.60;74.30
71668;DHT22;59504;54.806;9.640;2023-08-21T02:23:06;15.50;74.40
71668;DHT22;59504;54.806;9.640;2023-08-21T02:25:27;15.60;74.40
71668;DHT22;59504;54.806;9.640;2023-08-21T02:27:27;15.50;74.40
71668;DHT22;59504;54.806;9.640;2023-08-21T02:29:28;15.50;74.30
71668;DHT22;59504;54.806;9.640;2023-08-21T02:31:49;15.50;74.30
71668;DHT22;59504;54.806;9.640;2023-08-21T02:33:49;15.50;74.30
71668;DHT22;59504;54.806;9.640;2023-08-21T02:36:13;15.60;74.40
71668;DHT22;59504;54.806;9.640;2023-08-21T02:38:33;15.50;74.30
71668;DHT22;59504;54.806;9.640;2023-08-21T02:40:54;15.40;74.30
71668;DHT22;59504;54.806;9.640;2023-08-21T02:43:14;15.40;74.40
71668;DHT22;59504;54.806;9.640;2023-08-21T02:45:36;15.50;74.50
71668;DHT22;59504;54.806;9.640;2023-08-21T02:47:57;15.40;74.50
71668;DHT22;59504;54.806;9.640;2023-08-21T02:50:17;15.40;74.30
71668;DHT22;59504;54.806;9.640;2023-08-21T02:52:38;15.40;74.40
71668;DHT22;59504;54.806;9.640;2023-08-21T02:54:58;15.40;74.50
71668;DHT22;59504;54.806;9.640;2023-08-21T02:57:19;15.40;74.60
71668;DHT22;59504;54.806;9.640;2023-08-21T02:59:39;15.40;75.00
71668;DHT22;59504;54.806;9.640;2023-08-21T03:02:00;15.30;74.90
71668;DHT22;59504;54.806;9.640;2023-08-21T03:04:20;15.30;75.20
71668;DHT22;59504;54.806;9.640;2023-08-21T03:06:41;15.40;75.20
71668;DHT22;59504;54.806;9.640;2023-08-21T03:08:53;15.30;75.30
71668;DHT22;59504;54.806;9.640;2023-08-21T03:10:53;15.30;75.40
71668;DHT22;59504;54.806;9.640;2023-08-21T03:12:54;15.30;75.50
71668;DHT22;59504;54.806;9.640;2023-08-21T03:14:56;15.30;75.20
71668;DHT22;59504;54.806;9.640;2023-08-21T03:16:56;15.20;75.10
71668;DHT22;59504;54.806;9.640;2023-08-21T03:18:57;15.30;75.30
71668;DHT22;59504;54.806;9.640;2023-08-21T03:20:58;15.20;75.60
71668;DHT22;59504;54.806;9.640;2023-08-21T03:22:59;15.20;75.90
71668;DHT22;59504;54.806;9.640;2023-08-21T03:25:00;15.20;75.90
71668;DHT22;59504;54.806;9.640;2023-08-21T03:27:02;15.20;75.80
71668;DHT22;59504;54.806;9.640;2023-08-21T03:29:23;15.10;75.70
71668;DHT22;59504;54.806;9.640;2023-08-21T03:31:24;15.20;75.80
71668;DHT22;59504;54.806;9.640;2023-08-21T03:33:44;15.10;75.70
71668;DHT22;59504;54.806;9.640;2023-08-21T03:36:06;15.10;76.10
71668;DHT22;59504;54.806;9.640;2023-08-21T03:38:26;15.10;76.20
71668;DHT22;59504;54.806;9.640;2023-08-21T03:40:47;15.00;76.30
71668;DHT22;59504;54.806;9.640;2023-08-21T03:43:07;15.00;76.20
71668;DHT22;59504;54.806;9.640;2023-08-21T03:45:28;15.00;76.20
71668;DHT22;59504;54.806;9.640;2023-08-21T03:47:49;15.00;76.30
71668;DHT22;59504;54.806;9.640;2023-08-21T03:50:09;14.90;76.00
71668;DHT22;59504;54.806;9.640;2023-08-21T03:52:30;14.90;75.80
71668;DHT22;59504;54.806;9.640;2023-08-21T03:54:50;14.90;75.80
71668;DHT22;59504;54.806;9.640;2023-08-21T03:57:11;14.90;75.90
71668;DHT22;59504;54.806;9.640;2023-08-21T03:59:31;14.90;76.20
71668;DHT22;59504;54.806;9.640;2023-08-21T04:01:52;14.90;76.40
71668;DHT22;59504;54.806;9.640;2023-08-21T04:03:53;14.80;76.30
71668;DHT22;59504;54.806;9.640;2023-08-21T04:05:54;14.90;76.30
71668;DHT22;59504;54.806;9.640;2023-08-21T04:07:56;14.80;76.20
71668;DHT22;59504;54.806;9.640;2023-08-21T04:09:57;14.80;76.20
71668;DHT22;59504;54.806;9.640;2023-08-21T04:12:17;14.90;76.10
71668;DHT22;59504;54.806;9.640;2023-08-21T04:14:18;14.80;75.90
71668;DHT22;59504;54.806;9.640;2023-08-21T04:16:19;14.80;76.40
71668;DHT22;59504;54.806;9.640;2023-08-21T04:18:41;14.90;76.90
71668;DHT22;59504;54.806;9.640;2023-08-21T04:21:02;14.80;76.90
71668;DHT22;59504;54.806;9.640;2023-08-21T04:23:23;14.80;76.60
71668;DHT22;59504;54.806;9.640;2023-08-21T04:25:43;14.90;76.60
71668;DHT22;59504;54.806;9.640;2023-08-21T04:28:04;14.90;76.70
71668;DHT22;59504;54.806;9.640;2023-08-21T04:30:25;14.80;76.70
71668;DHT22;59504;54.806;9.640;2023-08-21T04:32:45;14.90;76.90
71668;DHT22;59504;54.806;9.640;2023-08-21T04:35:06;14.80;77.00
71668;DHT22;59504;54.806;9.640;2023-08-21T04:37:28;14.90;77.40
71668;DHT22;59504;54.806;9.640;2023-08-21T04:39:55;15.00;77.40
71668;DHT22;59504;54.806;9.640;2023-08-21T04:41:56;14.90;77.60
71668;DHT22;59504;54.806;9.640;2023-08-21T04:43:56;14.90;77.50
71668;DHT22;59504;54.806;9.640;2023-08-21T04:45:57;14.90;77.80
71668;DHT22;59504;54.806;9.640;2023-08-21T04:47:57;15.10;77.60
71668;DHT22;59504;54.806;9.640;2023-08-21T04:49:58;15.00;77.60
71668;DHT22;59504;54.806;9.640;2023-08-21T04:51:58;15.10;77.90
71668;DHT22;59504;54.806;9.640;2023-08-21T04:53:59;15.00;77.80
71668;DHT22;59504;54.806;9.640;2023-08-21T04:56:00;15.10;78.00
71668;DHT22;59504;54.806;9.640;2023-08-21T04:58:03;15.00;77.80
71668;DHT22;59504;54.806;9.640;2023-08-21T05:00:24;15.10;77.80
71668;DHT22;59504;54.806;9.640;2023-08-21T05:02:45;15.20;77.90
71668;DHT22;59504;54.806;9.640;2023-08-21T05:05:05;15.20;78.10
71668;DHT22;59504;54.806;9.640;2023-08-21T05:07:26;15.20;78.00
71668;DHT22;59504;54.806;9.640;2023-08-21T05:09:47;15.20;77.90
71668;DHT22;59504;54.806;9.640;2023-08-21T05:11:49;15.20;77.90
71668;DHT22;59504;54.806;9.640;2023-08-21T05:14:09;15.30;78.30
71668;DHT22;59504;54.806;9.640;2023-08-21T05:16:12;15.30;78.20
71668;DHT22;59504;54.806;9.640;2023-08-21T05:18:32;15.40;78.50
71668;DHT22;59504;54.806;9.640;2023-08-21T05:20:53;15.50;79.20
71668;DHT22;59504;54.806;9.640;2023-08-21T05:23:14;15.50;79.30
71668;DHT22;59504;54.806;9.640;2023-08-21T05:25:34;15.50;79.70
71668;DHT22;59504;54.806;9.640;2023-08-21T05:27:55;15.50;79.20
71668;DHT22;59504;54.806;9.640;2023-08-21T05:30:16;15.50;79.40
71668;DHT22;59504;54.806;9.640;2023-08-21T05:32:36;15.60;79.20
71668;DHT22;59504;54.806;9.640;2023-08-21T05:34:57;15.70;79.60
71668;DHT22;59504;54.806;9.640;2023-08-21T05:37:17;15.70;79.80
71668;DHT22;59504;54.806;9.640;2023-08-21T05:39:38;15.70;79.70
71668;DHT22;59504;54.806;9.640;2023-08-21T05:41:58;15.80;79.70
71668;DHT22;59504;54.806;9.640;2023-08-21T05:44:19;15.80;79.60
71668;DHT22;59504;54.806;9.640;2023-08-21T05:46:39;15.90;80.20
71668;DHT22;59504;54.806;9.640;2023-08-21T05:49:03;16.00;80.10
71668;DHT22;59504;54.806;9.640;2023-08-21T05:51:24;15.90;79.90
71668;DHT22;59504;54.806;9.640;2023-08-21T05:53:24;16.00;79.80
71668;DHT22;59504;54.806;9.640;2023-08-21T05:55:25;16.10;80.00
71668;DHT22;59504;54.806;9.640;2023-08-21T05:57:25;16.20;79.90
71668;DHT22;59504;54.806;9.640;2023-08-21T05:59:30;16.20;80.10
71668;DHT22;59504;54.806;9.640;2023-08-21T06:01:30;16.20;79.90
71668;DHT22;59504;54.806;9.640;2023-08-21T06:03:31;16.30;79.90
71668;DHT22;59504;54.806;9.640;2023-08-21T06:05:32;16.30;80.00
71668;DHT22;59504;54.806;9.640;2023-08-21T06:07:52;16.40;80.40
71668;DHT22;59504;54.806;9.640;2023-08-21T06:09:53;16.50;80.60
71668;DHT22;59504;54.806;9.640;2023-08-21T06:12:13;16.50;80.30
71668;DHT22;59504;54.806;9.640;2023-08-21T06:14:34;16.60;80.50
71668;DHT22;59504;54.806;9.640;2023-08-21T06:16:59;16.70;80.10
71668;DHT22;59504;54.806;9.640;2023-08-21T06:19:20;16.80;79.80
71668;DHT22;59504;54.806;9.640;2023-08-21T06:21:40;16.70;80.00
71668;DHT22;59504;54.806;9.640;2023-08-21T06:24:01;16.80;80.80
71668;DHT22;59504;54.806;9.640;2023-08-21T06:26:22;16.80;80.60
71668;DHT22;59504;54.806;9.640;2023-08-21T06:28:43;16.90;80.30
71668;DHT22;59504;54.806;9.640;2023-08-21T06:30:43;17.00;80.80
71668;DHT22;59504;54.806;9.640;2023-08-21T06:32:44;16.90;80.10
71668;DHT22;59504;54.806;9.640;2023-08-21T06:34:45;17.00;80.30
71668;DHT22;59504;54.806;9.640;2023-08-21T06:36:47;17.00;80.80
71668;DHT22;59504;54.806;9.640;2023-08-21T06:39:07;17.10;80.40
71668;DHT22;59504;54.806;9.640;2023-08-21T06:41:28;17.00;80.70
71668;DHT22;59504;54.806;9.640;2023-08-21T06:43:48;17.10;80.10
71668;DHT22;59504;54.806;9.640;2023-08-21T06:46:18;17.20;79.50
71668;DHT22;59504;54.806;9.640;2023-08-21T06:48:39;17.20;79.50
71668;DHT22;59504;54.806;9.640;2023-08-21T06:51:01;17.30;79.30
71668;DHT22;59504;54.806;9.640;2023-08-21T06:53:22;17.30;79.50
71668;DHT22;59504;54.806;9.640;2023-08-21T06:55:44;17.40;79.90
71668;DHT22;59504;54.806;9.640;2023-08-21T06:58:03;17.40;79.80
71668;DHT22;59504;54.806;9.640;2023-08-21T07:00:24;17.50;81.10
71668;DHT22;59504;54.806;9.640;2023-08-21T07:02:47;17.60;82.20
71668;DHT22;59504;54.806;9.640;2023-08-21T07:05:08;17.70;81.80
71668;DHT22;59504;54.806;9.640;2023-08-21T07:07:28;17.80;81.20
71668;DHT22;59504;54.806;9.640;2023-08-21T07:09:49;17.90;80.30
71668;DHT22;59504;54.806;9.640;2023-08-21T07:12:10;18.00;79.90
71668;DHT22;59504;54.806;9.640;2023-08-21T07:14:31;18.00;80.20
71668;DHT22;59504;54.806;9.640;2023-08-21T07:16:51;18.10;80.60
71668;DHT22;59504;54.806;9.640;2023-08-21T07:19:12;18.20;81.80
71668;DHT22;59504;54.806;9.640;2023-08-21T07:21:32;18.30;81.90
71668;DHT22;59504;54.806;9.640;2023-08-21T07:23:55;18.40;82.00
71668;DHT22;59504;54.806;9.640;2023-08-21T07:25:56;18.50;81.90
71668;DHT22;59504;54.806;9.640;2023-08-21T07:27:57;18.60;81.50
71668;DHT22;59504;54.806;9.640;2023-08-21T07:29:59;18.70;80.60
71668;DHT22;59504;54.806;9.640;2023-08-21T07:32:01;18.70;80.00
71668;DHT22;59504;54.806;9.640;2023-08-21T07:34:01;18.80;79.20
71668;DHT22;59504;54.806;9.640;2023-08-21T07:36:05;18.80;78.70
71668;DHT22;59504;54.806;9.640;2023-08-21T07:38:06;18.90;78.30
71668;DHT22;59504;54.806;9.640;2023-08-21T07:40:07;18.90;78.80
71668;DHT22;59504;54.806;9.640;2023-08-21T07:42:07;19.00;78.90
71668;DHT22;59504;54.806;9.640;2023-08-21T07:44:08;19.10;79.80
71668;DHT22;59504;54.806;9.640;2023-08-21T07:46:10;19.10;79.20
71668;DHT22;59504;54.806;9.640;2023-08-21T07:48:13;19.20;78.60
71668;DHT22;59504;54.806;9.640;2023-08-21T07:50:14;19.40;78.30
71668;DHT22;59504;54.806;9.640;2023-08-21T07:52:17;19.40;78.00
71668;DHT22;59504;54.806;9.640;2023-08-21T07:54:17;19.40;77.50
71668;DHT22;59504;54.806;9.640;2023-08-21T07:56:19;19.60;77.30
71668;DHT22;59504;54.806;9.640;2023-08-21T07:58:19;19.60;76.00
71668;DHT22;59504;54.806;9.640;2023-08-21T08:00:20;19.60;75.30
71668;DHT22;59504;54.806;9.640;2023-08-21T08:02:20;19.60;75.20
71668;DHT22;59504;54.806;9.640;2023-08-21T08:04:21;19.60;74.60
71668;DHT22;59504;54.806;9.640;2023-08-21T08:06:21;19.60;74.50
71668;DHT22;59504;54.806;9.640;2023-08-21T08:08:23;19.60;74.20
71668;DHT22;59504;54.806;9.640;2023-08-21T08:10:24;19.60;74.20
71668;DHT22;59504;54.806;9.640;2023-08-21T08:12:25;19.60;74.40
71668;DHT22;59504;54.806;9.640;2023-08-21T08:14:26;19.60;74.40
71668;DHT22;59504;54.806;9.640;2023-08-21T08:16:26;19.60;74.90
71668;DHT22;59504;54.806;9.640;2023-08-21T08:18:27;19.70;74.40
71668;DHT22;59504;54.806;9.640;2023-08-21T08:20:27;19.70;73.40
71668;DHT22;59504;54.806;9.640;2023-08-21T08:22:28;19.70;72.80
71668;DHT22;59504;54.806;9.640;2023-08-21T08:24:28;19.70;73.00
71668;DHT22;59504;54.806;9.640;2023-08-21T08:26:29;19.80;73.10
71668;DHT22;59504;54.806;9.640;2023-08-21T08:28:29;19.80;73.20
71668;DHT22;59504;54.806;9.640;2023-08-21T08:30:30;19.80;73.30
71668;DHT22;59504;54.806;9.640;2023-08-21T08:32:31;19.90;73.60
71668;DHT22;59504;54.806;9.640;2023-08-21T08:34:31;19.90;73.70
71668;DHT22;59504;54.806;9.640;2023-08-21T08:36:32;19.90;73.50
71668;DHT22;59504;54.806;9.640;2023-08-21T08:38:32;20.00;73.10
71668;DHT22;59504;54.806;9.640;2023-08-21T08:40:33;20.10;73.10
71668;DHT22;59504;54.806;9.640;2023-08-21T08:42:35;20.10;73.00
71668;DHT22;59504;54.806;9.640;2023-08-21T08:44:41;20.20;72.00
71668;DHT22;59504;54.806;9.640;2023-08-21T08:46:52;20.20;71.10
71668;DHT22;59504;54.806;9.640;2023-08-21T08:48:53;20.30;70.60
71668;DHT22;59504;54.806;9.640;2023-08-21T08:50:54;20.30;69.80
71668;DHT22;59504;54.806;9.640;2023-08-21T08:52:57;20.40;70.30
71668;DHT22;59504;54.806;9.640;2023-08-21T08:54:58;20.40;70.10
71668;DHT22;59504;54.806;9.640;2023-08-21T08:56:59;20.40;70.40
71668;DHT22;59504;54.806;9.640;2023-08-21T08:58:59;20.50;70.20
71668;DHT22;59504;54.806;9.640;2023-08-21T09:01:00;20.50;70.30
71668;DHT22;59504;54.806;9.640;2023-08-21T09:03:01;20.60;70.20
71668;DHT22;59504;54.806;9.640;2023-08-21T09:05:01;20.60;69.80
71668;DHT22;59504;54.806;9.640;2023-08-21T09:07:05;20.70;68.50
71668;DHT22;59504;54.806;9.640;2023-08-21T09:09:07;20.70;69.10
71668;DHT22;59504;54.806;9.640;2023-08-21T09:11:07;20.80;68.20
71668;DHT22;59504;54.806;9.640;2023-08-21T09:13:09;20.80;68.10
71668;DHT22;59504;54.806;9.640;2023-08-21T09:15:09;20.90;68.30
71668;DHT22;59504;54.806;9.640;2023-08-21T09:17:10;21.00;68.20
71668;DHT22;59504;54.806;9.640;2023-08-21T09:19:11;21.00;67.80
71668;DHT22;59504;54.806;9.640;2023-08-21T09:21:21;21.00;67.50
71668;DHT22;59504;54.806;9.640;2023-08-21T09:23:22;21.00;66.80
71668;DHT22;59504;54.806;9.640;2023-08-21T09:25:23;21.10;66.30
71668;DHT22;59504;54.806;9.640;2023-08-21T09:27:24;21.00;66.20
71668;DHT22;59504;54.806;9.640;2023-08-21T09:29:25;21.10;65.70
71668;DHT22;59504;54.806;9.640;2023-08-21T09:31:32;21.10;65.90
71668;DHT22;59504;54.806;9.640;2023-08-21T09:33:33;21.10;65.80
71668;DHT22;59504;54.806;9.640;2023-08-21T09:35:34;21.10;65.10
71668;DHT22;59504;54.806;9.640;2023-08-21T09:37:34;21.10;65.40
71668;DHT22;59504;54.806;9.640;2023-08-21T09:39:35;21.10;64.40
71668;DHT22;59504;54.806;9.640;2023-08-21T09:41:36;21.10;64.90
71668;DHT22;59504;54.806;9.640;2023-08-21T09:43:42;21.20;65.20
71668;DHT22;59504;54.806;9.640;2023-08-21T09:45:46;21.20;65.20
71668;DHT22;59504;54.806;9.640;2023-08-21T09:47:47;21.20;65.40
71668;DHT22;59504;54.806;9.640;2023-08-21T09:50:01;21.20;65.10
71668;DHT22;59504;54.806;9.640;2023-08-21T09:52:04;21.20;65.50
71668;DHT22;59504;54.806;9.640;2023-08-21T09:54:05;21.30;65.10
71668;DHT22;59504;54.806;9.640;2023-08-21T09:56:06;21.30;65.40
71668;DHT22;59504;54.806;9.640;2023-08-21T09:58:10;21.30;65.00
71668;DHT22;59504;54.806;9.640;2023-08-21T10:00:11;21.40;65.20
71668;DHT22;59504;54.806;9.640;2023-08-21T10:02:32;21.40;65.10
71668;DHT22;59504;54.806;9.640;2023-08-21T10:07:37;21.50;65.50
71668;DHT22;59504;54.806;9.640;2023-08-21T10:09:38;21.60;63.90
71668;DHT22;59504;54.806;9.640;2023-08-21T10:11:39;21.70;64.40
71668;DHT22;59504;54.806;9.640;2023-08-21T10:13:40;21.70;63.60
71668;DHT22;59504;54.806;9.640;2023-08-21T10:15:41;21.70;63.60
71668;DHT22;59504;54.806;9.640;2023-08-21T10:17:43;21.80;63.00
71668;DHT22;59504;54.806;9.640;2023-08-21T10:19:50;21.80;62.90
71668;DHT22;59504;54.806;9.640;2023-08-21T10:21:50;21.90;61.50
71668;DHT22;59504;54.806;9.640;2023-08-21T10:23:55;22.00;61.70
71668;DHT22;59504;54.806;9.640;2023-08-21T10:26:00;22.00;61.60
71668;DHT22;59504;54.806;9.640;2023-08-21T10:28:01;22.00;61.10
71668;DHT22;59504;54.806;9.640;2023-08-21T10:30:10;22.00;60.80
71668;DHT22;59504;54.806;9.640;2023-08-21T10:32:12;22.10;61.30
71668;DHT22;59504;54.806;9.640;2023-08-21T10:34:12;22.20;61.20
71668;DHT22;59504;54.806;9.640;2023-08-21T10:36:13;22.20;61.30
71668;DHT22;59504;54.806;9.640;2023-08-21T10:38:14;22.30;61.00
71668;DHT22;59504;54.806;9.640;2023-08-21T10:40:21;22.30;61.10
71668;DHT22;59504;54.806;9.640;2023-08-21T10:42:38;22.40;60.60
71668;DHT22;59504;54.806;9.640;2023-08-21T10:46:52;22.50;58.90
71668;DHT22;59504;54.806;9.640;2023-08-21T10:48:53;22.60;60.50
71668;DHT22;59504;54.806;9.640;2023-08-21T10:50:53;22.70;59.50
71668;DHT22;59504;54.806;9.640;2023-08-21T10:52:54;22.60;56.70
71668;DHT22;59504;54.806;9.640;2023-08-21T10:54:56;22.70;56.50
71668;DHT22;59504;54.806;9.640;2023-08-21T10:57:01;22.70;56.10
71668;DHT22;59504;54.806;9.640;2023-08-21T10:59:14;22.70;56.60
71668;DHT22;59504;54.806;9.640;2023-08-21T11:01:15;22.70;56.20
71668;DHT22;59504;54.806;9.640;2023-08-21T11:03:16;22.60;56.70
71668;DHT22;59504;54.806;9.640;2023-08-21T11:05:16;22.70;57.00
71668;DHT22;59504;54.806;9.640;2023-08-21T11:07:17;22.60;57.00
71668;DHT22;59504;54.806;9.640;2023-08-21T11:09:18;22.60;57.50
71668;DHT22;59504;54.806;9.640;2023-08-21T11:11:19;22.70;56.70
71668;DHT22;59504;54.806;9.640;2023-08-21T11:13:19;22.70;57.00
71668;DHT22;59504;54.806;9.640;2023-08-21T11:15:23;22.70;57.10
71668;DHT22;59504;54.806;9.640;2023-08-21T11:17:24;22.70;57.10
71668;DHT22;59504;54.806;9.640;2023-08-21T11:19:25;22.70;57.30
71668;DHT22;59504;54.806;9.640;2023-08-21T11:21:30;22.80;56.80
71668;DHT22;59504;54.806;9.640;2023-08-21T11:23:42;22.80;58.10
71668;DHT22;59504;54.806;9.640;2023-08-21T11:25:55;22.80;57.10
71668;DHT22;59504;54.806;9.640;2023-08-21T11:27:57;22.80;57.10
71668;DHT22;59504;54.806;9.640;2023-08-21T11:30:18;22.80;56.40
71668;DHT22;59504;54.806;9.640;2023-08-21T11:32:22;22.90;56.20
71668;DHT22;59504;54.806;9.640;2023-08-21T11:34:46;22.90;56.70
71668;DHT22;59504;54.806;9.640;2023-08-21T11:37:07;22.90;56.20
71668;DHT22;59504;54.806;9.640;2023-08-21T11:39:11;23.00;56.80
71668;DHT22;59504;54.806;9.640;2023-08-21T11:41:32;23.00;56.20
71668;DHT22;59504;54.806;9.640;2023-08-21T11:43:44;23.00;54.80
71668;DHT22;59504;54.806;9.640;2023-08-21T11:46:05;23.10;56.00
71668;DHT22;59504;54.806;9.640;2023-08-21T11:48:25;23.10;56.00
71668;DHT22;59504;54.806;9.640;2023-08-21T11:50:47;23.10;55.30
71668;DHT22;59504;54.806;9.640;2023-08-21T11:53:07;23.10;55.60
71668;DHT22;59504;54.806;9.640;2023-08-21T11:55:29;23.20;55.60
71668;DHT22;59504;54.806;9.640;2023-08-21T11:57:50;23.10;55.00
71668;DHT22;59504;54.806;9.640;2023-08-21T12:00:11;23.20;55.60
71668;DHT22;59504;54.806;9.640;2023-08-21T12:02:32;23.30;55.50
71668;DHT22;59504;54.806;9.640;2023-08-21T12:04:32;23.30;55.70
71668;DHT22;59504;54.806;9.640;2023-08-21T12:06:33;23.40;55.00
71668;DHT22;59504;54.806;9.640;2023-08-21T12:08:34;23.40;55.40
71668;DHT22;59504;54.806;9.640;2023-08-21T12:10:35;23.50;55.30
71668;DHT22;59504;54.806;9.640;2023-08-21T12:12:35;23.50;55.10
71668;DHT22;59504;54.806;9.640;2023-08-21T12:14:36;23.60;54.90
71668;DHT22;59504;54.806;9.640;2023-08-21T12:16:39;23.60;54.60
71668;DHT22;59504;54.806;9.640;2023-08-21T12:18:40;23.60;54.10
71668;DHT22;59504;54.806;9.640;2023-08-21T12:20:41;23.60;54.00
71668;DHT22;59504;54.806;9.640;2023-08-21T12:22:41;23.70;53.50
71668;DHT22;59504;54.806;9.640;2023-08-21T12:24:45;23.60;53.80
71668;DHT22;59504;54.806;9.640;2023-08-21T12:26:46;23.60;53.90
71668;DHT22;59504;54.806;9.640;2023-08-21T12:28:47;23.60;53.70
71668;DHT22;59504;54.806;9.640;2023-08-21T12:30:48;23.60;53.70
71668;DHT22;59504;54.806;9.640;2023-08-21T12:32:48;23.50;53.90
71668;DHT22;59504;54.806;9.640;2023-08-21T12:34:49;23.50;53.90
71668;DHT22;59504;54.806;9.640;2023-08-21T12:36:50;23.50;53.60
71668;DHT22;59504;54.806;9.640;2023-08-21T12:38:50;23.40;54.00
71668;DHT22;59504;54.806;9.640;2023-08-21T12:40:51;23.40;54.00
71668;DHT22;59504;54.806;9.640;2023-08-21T12:42:52;23.40;54.10
71668;DHT22;59504;54.806;9.640;2023-08-21T12:44:52;23.40;53.70
71668;DHT22;59504;54.806;9.640;2023-08-21T12:46:53;23.40;54.70
71668;DHT22;59504;54.806;9.640;2023-08-21T12:48:57;23.40;54.90
71668;DHT22;59504;54.806;9.640;2023-08-21T12:50:57;23.40;54.80
71668;DHT22;59504;54.806;9.640;2023-08-21T12:52:59;23.40;54.80
71668;DHT22;59504;54.806;9.640;2023-08-21T12:55:00;23.40;53.90
71668;DHT22;59504;54.806;9.640;2023-08-21T12:57:04;23.40;54.10
71668;DHT22;59504;54.806;9.640;2023-08-21T12:59:04;23.40;53.90
71668;DHT22;59504;54.806;9.640;2023-08-21T13:01:05;23.40;53.20
71668;DHT22;59504;54.806;9.640;2023-08-21T13:03:06;23.40;53.10
71668;DHT22;59504;54.806;9.640;2023-08-21T13:05:08;23.30;53.20
71668;DHT22;59504;54.806;9.640;2023-08-21T13:07:09;23.30;53.40
71668;DHT22;59504;54.806;9.640;2023-08-21T13:09:10;23.30;53.40
71668;DHT22;59504;54.806;9.640;2023-08-21T13:11:10;23.20;52.90
71668;DHT22;59504;54.806;9.640;2023-08-21T13:13:11;23.20;54.20
71668;DHT22;59504;54.806;9.640;2023-08-21T13:15:12;23.20;53.50
71668;DHT22;59504;54.806;9.640;2023-08-21T13:17:12;23.20;53.10
71668;DHT22;59504;54.806;9.640;2023-08-21T13:19:13;23.20;53.20
71668;DHT22;59504;54.806;9.640;2023-08-21T13:21:13;23.20;53.30
71668;DHT22;59504;54.806;9.640;2023-08-21T13:23:14;23.20;52.80
71668;DHT22;59504;54.806;9.640;2023-08-21T13:25:15;23.10;52.70
71668;DHT22;59504;54.806;9.640;2023-08-21T13:27:16;23.10;52.80
71668;DHT22;59504;54.806;9.640;2023-08-21T13:29:16;23.10;52.60
71668;DHT22;59504;54.806;9.640;2023-08-21T13:31:17;23.10;53.00
71668;DHT22;59504;54.806;9.640;2023-08-21T13:33:18;23.00;53.00
71668;DHT22;59504;54.806;9.640;2023-08-21T13:35:18;23.00;53.20
71668;DHT22;59504;54.806;9.640;2023-08-21T13:37:21;23.00;52.90
71668;DHT22;59504;54.806;9.640;2023-08-21T13:39:22;23.00;53.20